American Spirit — WDC4277 — position and weather

sailwx.info

Track history (hours):
 
Tides and Currents Weather Stations Pressure Air Temp Water Temp Dewpoint Dewpoint Depression Visibility Wind Speed Wind Dir Waves Ship Positions

American Spirit

Owner: AMERICAN WORKBOATS INC, TERMINAL ISLAND, CA. More information available from US FCC via Universal Licensing System and Coast Guard Vessel Documentation Center.

Last reported at 2017-May-23 23:01 UTC. Time now 2017-May-28 01:10 UTC.
Position N 33°44' W 118°16'.

Length 3 m; draft 10 m.

Type: Tug. MMSI: 367022090.

Date/timePositionNaut miles runAvg speedWind from/ knotsBaromVisibWave heightAir tempDewpointWater temp
2017-May-23 23:01N 33°44' W 118°16'0 0.0
2017-May-23 23:00N 33°44' W 118°16'  
2017-May-19 01:43N 33°44' W 118°16'1 3.6
2017-May-19 01:30N 33°43' W 118°16'4 8.2
2017-May-19 01:00N 33°41' W 118°12'4 7.7
2017-May-19 00:30N 33°39' W 118°07'4 7.6
2017-May-18 23:58N 33°38' W 118°03'3 7.5
2017-May-18 23:30N 33°36' W 117°59'4 7.8
2017-May-18 23:00N 33°35' W 117°54'1 1.8
2017-May-18 22:30N 33°36' W 117°54'1 2.4
2017-May-18 22:00N 33°37' W 117°55'2 3.5
2017-May-18 21:30N 33°36' W 117°53'1 2.7
2017-May-18 21:00N 33°35' W 117°53'3 5.6
2017-May-18 20:31N 33°32' W 117°53'0 0.5
2017-May-18 20:00N 33°32' W 117°53'3 5.1
2017-May-18 19:30N 33°34' W 117°53'1 3.0
2017-May-18 19:00N 33°36' W 117°53'2 3.3
2017-May-18 18:30N 33°37' W 117°55'0 0.8
2017-May-18 18:00N 33°37' W 117°55'0 0.0
2017-May-17 18:48N 33°37' W 117°55'0 0.0
2017-May-17 18:30N 33°37' W 117°55'1 1.3
2017-May-17 18:00N 33°37' W 117°54'2 3.5
2017-May-17 17:30N 33°35' W 117°53'2 4.9
2017-May-17 17:00N 33°33' W 117°53'2 4.0
2017-May-17 16:30N 33°31' W 117°53'2 4.4
2017-May-17 16:00N 33°33' W 117°53'2 4.2
2017-May-17 15:30N 33°35' W 117°53'1 3.0
2017-May-17 15:00N 33°36' W 117°54'0 0.0
2017-May-17 14:00N 33°36' W 117°54'1 2.0
2017-May-17 13:29N 33°36' W 117°55'  
Track history (hours):
 
Tides and Currents Weather Stations Pressure Air Temp Water Temp Dewpoint Dewpoint Depression Visibility Wind Speed Wind Dir Waves Ship Positions

American Spirit

Owner: AMERICAN WORKBOATS INC, TERMINAL ISLAND, CA. More information available from US FCC via Universal Licensing System and Coast Guard Vessel Documentation Center.

Last reported at 2017-May-23 23:01 UTC. Time now 2017-May-28 01:10 UTC.
Position N 33°44' W 118°16'.

Length 3 m; draft 10 m.

Type: Tug. MMSI: 367022090.

Date/timePositionNaut miles runAvg speedWind from/ knotsBaromVisibWave heightAir tempDewpointWater temp
2017-May-23 23:01N 33°44' W 118°16'0 0.0
2017-May-23 23:00N 33°44' W 118°16'  
2017-May-19 01:43N 33°44' W 118°16'1 3.6
2017-May-19 01:30N 33°43' W 118°16'4 8.2
2017-May-19 01:00N 33°41' W 118°12'4 7.7
2017-May-19 00:30N 33°39' W 118°07'4 7.6
2017-May-18 23:58N 33°38' W 118°03'3 7.5
2017-May-18 23:30N 33°36' W 117°59'4 7.8
2017-May-18 23:00N 33°35' W 117°54'1 1.8
2017-May-18 22:30N 33°36' W 117°54'1 2.4
2017-May-18 22:00N 33°37' W 117°55'2 3.5
2017-May-18 21:30N 33°36' W 117°53'1 2.7
2017-May-18 21:00N 33°35' W 117°53'3 5.6
2017-May-18 20:31N 33°32' W 117°53'0 0.5
2017-May-18 20:00N 33°32' W 117°53'3 5.1
2017-May-18 19:30N 33°34' W 117°53'1 3.0
2017-May-18 19:00N 33°36' W 117°53'2 3.3
2017-May-18 18:30N 33°37' W 117°55'0 0.8
2017-May-18 18:00N 33°37' W 117°55'0 0.0
2017-May-17 18:48N 33°37' W 117°55'0 0.0
2017-May-17 18:30N 33°37' W 117°55'1 1.3
2017-May-17 18:00N 33°37' W 117°54'2 3.5
2017-May-17 17:30N 33°35' W 117°53'2 4.9
2017-May-17 17:00N 33°33' W 117°53'2 4.0
2017-May-17 16:30N 33°31' W 117°53'2 4.4
2017-May-17 16:00N 33°33' W 117°53'2 4.2
2017-May-17 15:30N 33°35' W 117°53'1 3.0
2017-May-17 15:00N 33°36' W 117°54'0 0.0
2017-May-17 14:00N 33°36' W 117°54'1 2.0
2017-May-17 13:29N 33°36' W 117°55'  

Dump ship's entire track history